createdAt,value
2023-01-13T00:01:06.225Z,1002.51
2023-01-13T00:05:08.039Z,1002.6
2023-01-13T00:10:08.463Z,1002.58
2023-01-13T00:15:08.225Z,1002.58
2023-01-13T00:20:08.033Z,1002.65
2023-01-13T00:25:07.808Z,1002.63
2023-01-13T00:30:08.610Z,1002.62
2023-01-13T00:35:08.338Z,1002.7
2023-01-13T00:40:08.141Z,1002.64
2023-01-13T00:45:07.930Z,1002.79
2023-01-13T00:50:08.746Z,1002.72
2023-01-13T00:55:08.647Z,1002.59
2023-01-13T01:00:08.394Z,1002.56
2023-01-13T01:05:08.152Z,1002.58
2023-01-13T01:10:07.953Z,1002.62
2023-01-13T01:15:07.716Z,1002.64
2023-01-13T01:20:08.495Z,1002.64
2023-01-13T01:25:08.293Z,1002.59
2023-01-13T01:30:08.099Z,1002.69
2023-01-13T01:35:07.877Z,1002.67
2023-01-13T01:40:08.669Z,1002.85
2023-01-13T01:45:08.449Z,1002.81
2023-01-13T01:50:08.362Z,1002.84
2023-01-13T01:55:08.145Z,1002.8
2023-01-13T02:00:07.930Z,1002.74
2023-01-13T02:05:07.727Z,1002.67
2023-01-13T02:10:08.540Z,1002.69
2023-01-13T02:15:08.289Z,1002.69
2023-01-13T02:20:08.056Z,1002.67
2023-01-13T02:25:07.827Z,1002.69
2023-01-13T02:30:18.703Z,1002.71
2023-01-13T02:35:08.529Z,1002.72
2023-01-13T02:40:08.349Z,1002.48
2023-01-13T02:45:08.130Z,1002.7
2023-01-13T02:50:07.894Z,1002.69
2023-01-13T02:55:09.034Z,1002.65
2023-01-13T03:00:07.808Z,1002.57
2023-01-13T03:05:08.587Z,1002.62
2023-01-13T03:10:08.406Z,1002.65
2023-01-13T03:15:08.168Z,1002.67
2023-01-13T03:20:07.965Z,1002.62
2023-01-13T03:25:07.752Z,1002.48
2023-01-13T03:30:08.531Z,1002.35
2023-01-13T03:35:08.302Z,1002.28
2023-01-13T03:40:08.097Z,1002.26
2023-01-13T03:45:13.781Z,1002.21
2023-01-13T03:50:08.577Z,1002.19
2023-01-13T03:55:08.409Z,1002.14
2023-01-13T04:00:08.168Z,1002.13
2023-01-13T04:05:08.002Z,1002.13
2023-01-13T04:10:07.792Z,1002.19
2023-01-13T04:15:08.551Z,1002.13
2023-01-13T04:20:08.357Z,1002.19
2023-01-13T04:25:08.151Z,1002.16
2023-01-13T04:30:07.967Z,1002.21
2023-01-13T04:35:07.767Z,1002.25
2023-01-13T04:40:08.563Z,1002.15
2023-01-13T04:45:08.353Z,1002.1
2023-01-13T04:50:08.114Z,1002.15
2023-01-13T04:55:07.938Z,1002.19
2023-01-13T05:00:08.736Z,1002.14
2023-01-13T05:05:02.675Z,1002.14
2023-01-13T05:10:03.517Z,1002.12
2023-01-13T05:15:14.978Z,1002.15
2023-01-13T05:20:01.894Z,1002.31
2023-01-13T05:25:03.649Z,1002.35
2023-01-13T05:30:06.939Z,1002.44
2023-01-13T05:35:03.379Z,1002.37
2023-01-13T05:40:03.591Z,1002.35
2023-01-13T05:45:02.584Z,1002.33
2023-01-13T05:50:03.623Z,1002.42
2023-01-13T05:55:02.651Z,1002.38
2023-01-13T06:00:03.031Z,1002.43
2023-01-13T06:05:05.202Z,1002.5
2023-01-13T06:10:03.616Z,1002.53
2023-01-13T06:15:03.820Z,1002.45
2023-01-13T06:20:03.543Z,1002.56
2023-01-13T06:25:02.444Z,1002.48
2023-01-13T06:30:03.258Z,1002.64
2023-01-13T06:35:05.267Z,1002.49
2023-01-13T06:40:02.457Z,1002.36
2023-01-13T06:45:03.275Z,1002.46
2023-01-13T06:50:02.359Z,1002.63
2023-01-13T06:55:02.688Z,1002.57
2023-01-13T07:00:03.277Z,1002.65
2023-01-13T07:05:03.113Z,1002.56
2023-01-13T07:10:03.834Z,1002.56
2023-01-13T07:15:03.093Z,1002.66
2023-01-13T07:20:02.111Z,1002.68
2023-01-13T07:25:02.810Z,1002.94
2023-01-13T07:30:02.935Z,1002.86
2023-01-13T07:35:04.476Z,1002.92
2023-01-13T07:40:02.484Z,1002.93
2023-01-13T07:45:03.016Z,1002.81
2023-01-13T07:50:02.011Z,1002.88
2023-01-13T07:55:01.924Z,1003.02
2023-01-13T08:00:03.537Z,1003.05
2023-01-13T08:05:02.718Z,1003.16
2023-01-13T08:10:03.735Z,1003.22
2023-01-13T08:15:02.833Z,1003.37
2023-01-13T08:20:02.951Z,1003.25
2023-01-13T08:25:01.905Z,1003.3
2023-01-13T08:30:03.036Z,1003.3
2023-01-13T08:35:02.906Z,1003.32
2023-01-13T08:40:12.968Z,1003.24
2023-01-13T08:45:02.094Z,1003.36
2023-01-13T08:50:01.989Z,1003.41
2023-01-13T08:55:03.495Z,1003.48
2023-01-13T09:00:04.093Z,1003.43
2023-01-13T09:05:02.241Z,1003.54
2023-01-13T09:10:03.408Z,1003.5
2023-01-13T09:15:02.334Z,1003.56
2023-01-13T09:20:02.273Z,1003.68
2023-01-13T09:25:02.191Z,1003.73
2023-01-13T09:30:02.377Z,1003.73
2023-01-13T09:35:03.553Z,1003.72
2023-01-13T09:40:03.371Z,1003.71
2023-01-13T09:45:03.543Z,1003.73
2023-01-13T09:50:02.664Z,1003.88
2023-01-13T09:55:03.250Z,1004.01
2023-01-13T10:00:02.408Z,1004.12
2023-01-13T10:05:03.132Z,1004.1
2023-01-13T10:10:02.140Z,1004.13
2023-01-13T10:15:02.031Z,1004.11
2023-01-13T10:20:02.181Z,1004.29
2023-01-13T10:25:02.216Z,1004.19
2023-01-13T10:30:04.861Z,1004.16
2023-01-13T10:35:02.924Z,1004.28
2023-01-13T10:40:02.837Z,1004.32
2023-01-13T10:45:04.937Z,1004.3
2023-01-13T10:50:12.734Z,1004.49
2023-01-13T10:55:04.681Z,1004.46
2023-01-13T11:00:02.778Z,1004.55
2023-01-13T11:05:03.767Z,1004.68
2023-01-13T11:10:04.725Z,1004.95
2023-01-13T11:15:04.655Z,1004.87
2023-01-13T11:20:03.228Z,1004.99
2023-01-13T11:25:02.903Z,1004.91
2023-01-13T11:30:04.053Z,1004.89
2023-01-13T11:35:03.216Z,1004.86
2023-01-13T11:40:04.869Z,1004.85
2023-01-13T11:45:02.916Z,1004.85
2023-01-13T11:50:03.239Z,1004.89
2023-01-13T11:55:02.132Z,1004.9
2023-01-13T12:00:16.346Z,1005.01
2023-01-13T12:05:22.877Z,1005.09
2023-01-13T12:10:13.671Z,1005.08
2023-01-13T12:15:08.662Z,1004.87
2023-01-13T12:20:12.672Z,1005.15
2023-01-13T12:25:07.223Z,1005.12
2023-01-13T12:30:07.650Z,1005.23
2023-01-13T12:35:12.595Z,1005.18
2023-01-13T12:40:12.654Z,1005.24
2023-01-13T12:45:03.432Z,1005.19
2023-01-13T12:50:07.383Z,1005.45
2023-01-13T12:55:02.844Z,1005.4
2023-01-13T13:00:14.523Z,1005.34
2023-01-13T13:05:12.281Z,1005.41
2023-01-13T13:10:14.795Z,1005.38
2023-01-13T13:15:14.474Z,1005.43
2023-01-13T13:20:13.835Z,1005.53
2023-01-13T13:25:08.188Z,1005.61
2023-01-13T13:30:04.881Z,1005.67
2023-01-13T13:35:05.883Z,1005.86
2023-01-13T13:40:08.125Z,1005.98
2023-01-13T13:45:14.211Z,1006.0
2023-01-13T13:50:13.141Z,1006.09
2023-01-13T13:55:18.133Z,1006.13
2023-01-13T14:00:25.697Z,1006.25
2023-01-13T14:05:14.505Z,1006.28
2023-01-13T14:10:12.261Z,1006.41
2023-01-13T14:15:13.236Z,1006.58
2023-01-13T14:20:20.277Z,1006.47
2023-01-13T14:25:13.001Z,1006.54
2023-01-13T14:30:11.848Z,1006.82
2023-01-13T14:35:09.967Z,1006.94
2023-01-13T14:40:12.852Z,1006.96
2023-01-13T14:45:02.644Z,1006.96
2023-01-13T14:50:27.642Z,1007.11
2023-01-13T14:55:08.548Z,1007.12
2023-01-13T15:00:07.001Z,1007.21
2023-01-13T15:05:15.936Z,1007.4
2023-01-13T15:10:06.784Z,1007.42
2023-01-13T15:15:12.724Z,1007.49
2023-01-13T15:20:16.679Z,1007.66
2023-01-13T15:25:16.254Z,1007.65
2023-01-13T15:30:12.506Z,1007.72
2023-01-13T15:35:14.195Z,1007.85
2023-01-13T15:40:11.999Z,1007.96
2023-01-13T15:45:11.735Z,1008.01
2023-01-13T15:50:07.573Z,1008.1
2023-01-13T15:55:12.421Z,1008.12
2023-01-13T16:00:10.389Z,1008.25
2023-01-13T16:05:18.759Z,1008.22
2023-01-13T16:10:15.275Z,1008.3
2023-01-13T16:15:12.024Z,1008.46
2023-01-13T16:20:06.042Z,1008.42
2023-01-13T16:25:11.101Z,1008.55
2023-01-13T16:30:23.367Z,1008.53
2023-01-13T16:35:12.091Z,1008.69
2023-01-13T16:40:12.869Z,1008.72
2023-01-13T16:45:13.872Z,1008.82
2023-01-13T16:50:12.728Z,1008.86
2023-01-13T16:55:12.442Z,1008.93
2023-01-13T17:00:20.751Z,1009.01
2023-01-13T17:05:12.530Z,1009.11
2023-01-13T17:10:13.519Z,1009.15
2023-01-13T17:15:12.293Z,1009.19
2023-01-13T17:20:16.494Z,1009.34
2023-01-13T17:25:12.736Z,1009.37
2023-01-13T17:30:15.055Z,1009.46
2023-01-13T17:35:07.093Z,1009.65
2023-01-13T17:40:13.478Z,1009.64
2023-01-13T17:45:02.912Z,1009.77
2023-01-13T17:50:06.754Z,1009.85
2023-01-13T17:55:14.879Z,1009.9
2023-01-13T18:00:21.362Z,1009.97
2023-01-13T18:05:15.700Z,1010.02
2023-01-13T18:10:12.654Z,1010.07
2023-01-13T18:15:21.689Z,1010.19
2023-01-13T18:20:14.526Z,1010.19
2023-01-13T18:25:18.541Z,1010.13
2023-01-13T18:30:11.133Z,1010.28
2023-01-13T18:35:06.751Z,1010.24
2023-01-13T18:40:09.447Z,1010.28
2023-01-13T18:45:12.300Z,1010.33
2023-01-13T18:50:15.422Z,1010.51
2023-01-13T18:55:12.597Z,1010.53
2023-01-13T19:00:02.817Z,1010.73
2023-01-13T19:05:13.744Z,1011.01
2023-01-13T19:10:12.573Z,1011.06
2023-01-13T19:15:12.363Z,1011.14
2023-01-13T19:20:12.070Z,1011.07
2023-01-13T19:25:11.817Z,1011.06
2023-01-13T19:30:12.714Z,1011.22
2023-01-13T19:35:12.509Z,1011.28
2023-01-13T19:40:09.606Z,1011.22
2023-01-13T19:45:12.364Z,1011.48
2023-01-13T19:50:13.859Z,1011.5
2023-01-13T19:55:20.446Z,1011.64
2023-01-13T20:00:12.153Z,1011.81
2023-01-13T20:05:11.990Z,1011.92
2023-01-13T20:10:14.096Z,1011.88
2023-01-13T20:15:11.924Z,1012.0
2023-01-13T20:20:16.272Z,1012.08
2023-01-13T20:25:10.267Z,1011.69
2023-01-13T20:30:13.523Z,1011.86
2023-01-13T20:35:17.881Z,1011.94
2023-01-13T20:40:19.117Z,1012.08
2023-01-13T20:45:20.690Z,1012.09
2023-01-13T20:50:22.258Z,1012.09
2023-01-13T20:55:13.568Z,1012.11
2023-01-13T21:00:16.856Z,1012.19
2023-01-13T21:05:09.944Z,1012.15
2023-01-13T21:10:15.171Z,1012.25
2023-01-13T21:15:14.218Z,1012.24
2023-01-13T21:20:06.754Z,1012.26
2023-01-13T21:25:12.483Z,1012.4
2023-01-13T21:30:05.798Z,1012.4
2023-01-13T21:35:14.202Z,1012.22
2023-01-13T21:40:11.983Z,1012.33
2023-01-13T21:45:08.276Z,1012.29
2023-01-13T21:50:10.087Z,1012.28
2023-01-13T21:55:19.038Z,1012.41
2023-01-13T22:00:13.430Z,1012.48
2023-01-13T22:05:09.694Z,1012.43
2023-01-13T22:10:02.671Z,1012.54
2023-01-13T22:15:02.494Z,1012.65
2023-01-13T22:20:02.452Z,1012.76
2023-01-13T22:25:02.383Z,1013.06
2023-01-13T22:30:02.307Z,1012.93
2023-01-13T22:35:02.354Z,1013.04
2023-01-13T22:40:02.315Z,1013.09
2023-01-13T22:45:02.210Z,1013.16
2023-01-13T22:50:02.156Z,1013.19
2023-01-13T22:55:02.202Z,1013.26
2023-01-13T23:00:02.418Z,1013.3
2023-01-13T23:05:02.439Z,1013.19
2023-01-13T23:10:02.507Z,1013.21
2023-01-13T23:15:02.499Z,1013.22
2023-01-13T23:20:02.543Z,1013.22
2023-01-13T23:25:02.449Z,1013.35
2023-01-13T23:30:02.502Z,1013.41
2023-01-13T23:35:02.535Z,1013.43
2023-01-13T23:40:02.552Z,1013.43
2023-01-13T23:45:02.483Z,1013.38
2023-01-13T23:50:02.329Z,1013.38
2023-01-13T23:55:02.290Z,1013.35
